Super Servant 4 — PJPO — position and weather

sailwx.info

Track history (hours):
 
Tides and Currents Weather Stations Pressure Air Temp Water Temp Dewpoint Dewpoint Depression Visibility Wind Speed Wind Dir Waves Ship Positions

Super Servant 4

Last reported at 2016-Jul-27 20:30 UTC. Time now 2016-Jul-29 12:08 UTC.
Position N 39°21' W 009°49'.

Length 139 m; beam 32 m.

Type: Cargo ship. MMSI: 306157000.

Date/timePositionNaut miles runAvg speedWind from/ knotsBaromVisibWave heightAir tempDewpointWater temp
2016-Jul-27 20:30N 39°21' W 009°49'1010.8
2016-Jul-27 19:34N 39°10' W 009°50'1110.5
2016-Jul-27 18:33N 38°60' W 009°49'1010.5
2016-Jul-27 17:33N 38°49' W 009°50'1110.5
2016-Jul-27 16:33N 38°39' W 009°50'1010.3
2016-Jul-27 15:32N 38°30' W 009°43'1010.2
2016-Jul-27 14:33N 38°23' W 009°34'10 9.7
2016-Jul-27 13:33N 38°20' W 009°22'1212.1
2016-Jul-27 12:33N 38°20' W 009°07'1010.3
2016-Jul-27 11:34N 38°28' W 008°58'4 3.9
2016-Jul-27 10:32N 38°31' W 008°54'0 0.0
2016-Jul-27 09:32N 38°31' W 008°54'0 0.0
2016-Jul-27 08:29N 38°31' W 008°54'0 0.0
2016-Jul-27 07:29N 38°31' W 008°54'0 0.0
2016-Jul-27 06:29N 38°31' W 008°54'0 0.0
2016-Jul-27 05:23N 38°31' W 008°54'0 0.0
2016-Jul-27 04:26N 38°31' W 008°54'0 0.0
2016-Jul-27 03:32N 38°31' W 008°54'0 0.0
2016-Jul-27 02:32N 38°31' W 008°54'0 0.0
2016-Jul-27 01:32N 38°31' W 008°54'0 0.0
2016-Jul-27 00:32N 38°31' W 008°54'0 0.0
2016-Jul-26 23:32N 38°31' W 008°54'0 0.0
2016-Jul-26 22:32N 38°31' W 008°54'0 0.0
2016-Jul-26 21:32N 38°31' W 008°54'0 0.0
2016-Jul-26 20:32N 38°31' W 008°54'0 0.0
2016-Jul-26 19:29N 38°31' W 008°54'0 0.0
2016-Jul-26 18:32N 38°31' W 008°54'0 0.0
2016-Jul-26 17:32N 38°31' W 008°54'0 0.0
2016-Jul-26 16:32N 38°31' W 008°54'0 0.0
2016-Jul-26 15:32N 38°31' W 008°54'0 0.0
2016-Jul-26 14:32N 38°31' W 008°54'0 0.0
2016-Jul-26 13:32N 38°31' W 008°54'0 0.0
2016-Jul-26 12:32N 38°31' W 008°54'0 0.0
2016-Jul-26 11:26N 38°31' W 008°54'0 0.0
2016-Jul-26 10:32N 38°31' W 008°54'0 0.0
2016-Jul-26 09:32N 38°31' W 008°54'0 0.0
2016-Jul-26 08:32N 38°31' W 008°54'0 0.0
2016-Jul-26 07:32N 38°31' W 008°54'0 0.0
2016-Jul-26 06:32N 38°31' W 008°54'0 0.0
2016-Jul-26 05:32N 38°31' W 008°54'0 0.0
2016-Jul-26 04:32N 38°31' W 008°54'0 0.0
2016-Jul-26 03:32N 38°31' W 008°54'0 0.0
2016-Jul-26 02:29N 38°31' W 008°54'0 0.0
2016-Jul-26 01:32N 38°31' W 008°54'0 0.0
2016-Jul-26 00:32N 38°31' W 008°54'0 0.0
2016-Jul-25 23:32N 38°31' W 008°54'0 0.0
2016-Jul-25 22:29N 38°31' W 008°54'0 0.0
2016-Jul-25 21:32N 38°31' W 008°54'0 0.0
2016-Jul-25 20:32N 38°31' W 008°54'0 0.1
2016-Jul-25 19:29N 38°31' W 008°54'0 0.0
2016-Jul-25 18:29N 38°31' W 008°54'0 0.0
2016-Jul-25 17:29N 38°31' W 008°54'0 0.0
2016-Jul-25 16:29N 38°31' W 008°54'0 0.2
2016-Jul-25 15:32N 38°31' W 008°54'0 0.0
2016-Jul-25 14:29N 38°31' W 008°54'0 0.0
2016-Jul-25 13:32N 38°31' W 008°54'0 0.0
2016-Jul-25 12:32N 38°31' W 008°54'0 0.0
2016-Jul-25 11:32N 38°31' W 008°54'0 0.0
2016-Jul-25 10:29N 38°31' W 008°54'0 0.0
2016-Jul-25 09:32N 38°31' W 008°54'0 0.0
2016-Jul-25 08:32N 38°31' W 008°54'0 0.0
2016-Jul-25 07:32N 38°31' W 008°54'0 0.0
2016-Jul-25 06:32N 38°31' W 008°54'0 0.0
2016-Jul-25 05:29N 38°31' W 008°54'0 0.0
2016-Jul-25 04:32N 38°31' W 008°54'0 0.0
2016-Jul-25 03:32N 38°31' W 008°54'0 0.0
2016-Jul-25 02:29N 38°31' W 008°54'0 0.3
2016-Jul-25 01:33N 38°31' W 008°54'8 7.7
2016-Jul-25 00:33N 38°24' W 008°59'1 1.4
2016-Jul-24 23:33N 38°23' W 009°00'3 3.0
2016-Jul-24 22:33N 38°20' W 009°01'1212.3
2016-Jul-24 21:34N 38°08' W 009°04'1212.3
2016-Jul-24 20:33N 37°56' W 009°08'1211.9
2016-Jul-24 19:33N 37°44' W 009°11'1212.0
2016-Jul-24 18:33N 37°32' W 009°14'1211.8
2016-Jul-24 17:33N 37°21' W 009°17'1212.0
2016-Jul-24 16:32N 37°09' W 009°20'1311.3
2016-Jul-24 15:23N 36°56' W 009°20'1011.5
2016-Jul-24 14:33N 36°48' W 009°13'1211.3
2016-Jul-24 13:30N 36°42' W 009°00'1112.0
2016-Jul-24 12:33N 36°39' W 008°47'1212.4
2016-Jul-24 11:33N 36°35' W 008°32'1212.3
2016-Jul-24 10:33N 36°31' W 008°17'1312.4
2016-Jul-24 09:30N 36°27' W 008°02'2512.7
2016-Jul-24 07:31N 36°19' W 007°33'9613.6
2016-Jul-24 00:26N 35°57' W 005°37'1011.3
2016-Jul-23 23:33N 36°00' W 005°25'1111.0
2016-Jul-23 22:33N 36°02' W 005°12'9712.0
2016-Jul-23 14:25N 36°19' W 003°13'2612.2
2016-Jul-23 12:16N 36°23' W 002°40'1012.5
2016-Jul-23 11:29N 36°24' W 002°28'1212.4
2016-Jul-23 10:31N 36°26' W 002°13'1212.4
2016-Jul-23 09:31N 36°32' W 002°00'4212.9
2016-Jul-23 06:15N 36°56' W 001°17'2313.2
2016-Jul-23 04:32N 37°08' W 000°53'1412.9
2016-Jul-23 03:27N 37°16' W 000°39'1412.8
2016-Jul-23 02:23N 37°25' W 000°26'1113.3
2016-Jul-23 01:33N 37°34' W 000°18'1413.6
2016-Jul-23 00:30N 37°46' W 000°08'1313.2
2016-Jul-22 23:29N 37°57' E 000°03'1212.9
2016-Jul-22 22:32N 38°07' E 000°11'3012.4
2016-Jul-22 20:07N 38°31' E 000°34'912.6
2016-Jul-22 19:24N 38°38' E 000°40'1212.8
2016-Jul-22 18:29N 38°48' E 000°49'1412.8
2016-Jul-22 17:21N 38°60' E 001°00'1612.8
2016-Jul-22 16:08N 39°12' E 001°12'1212.6
2016-Jul-22 15:13N 39°23' E 001°18'5 7.0
2016-Jul-22 14:30N 39°25' E 001°24'2512.7
2016-Jul-22 12:33N 39°45' E 001°43'1312.7
2016-Jul-22 11:33N 39°55' E 001°53'1312.8
2016-Jul-22 10:33N 40°06' E 002°02'1312.9
2016-Jul-22 09:33N 40°16' E 002°12'1312.9
2016-Jul-22 08:33N 40°27' E 002°22'9 9.3
2016-Jul-22 07:33N 40°34' E 002°30'2613.0
2016-Jul-22 05:33N 40°55' E 002°50'1312.9
2016-Jul-22 04:33N 41°06' E 002°60'1313.3
2016-Jul-22 03:33N 41°16' E 003°10'1413.6
2016-Jul-22 02:33N 41°28' E 003°21'1313.2
2016-Jul-22 01:33N 41°38' E 003°32'1312.8
2016-Jul-22 00:32N 41°49' E 003°41'1612.9
2016-Jul-21 23:17N 42°02' E 003°53'912.7
2016-Jul-21 22:33N 42°10' E 003°60'1212.2
2016-Jul-21 21:33N 42°19' E 004°11'1312.6
2016-Jul-21 20:33N 42°29' E 004°21'1312.8
2016-Jul-21 19:33N 42°39' E 004°31'1512.8
2016-Jul-21 18:23N 42°52' E 004°43'1112.6
2016-Jul-21 17:32N 43°00' E 004°52'1211.9
2016-Jul-21 16:33N 43°10' E 005°01'1111.2
2016-Jul-21 15:33N 43°21' E 004°58'6 5.8
2016-Jul-21 14:32N 43°25' E 004°52'0 0.0
2016-Jul-21 13:32N 43°25' E 004°52'0 0.0
2016-Jul-21 12:32N 43°25' E 004°52'0 0.0
2016-Jul-21 11:32N 43°25' E 004°52'0 0.0
2016-Jul-21 10:32N 43°25' E 004°52'0 0.0
2016-Jul-21 09:32N 43°25' E 004°52'0 0.0
2016-Jul-21 03:20N 43°25' E 004°52'0 0.0
2016-Jul-19 19:24N 43°25' E 004°53'7 8.4
2016-Jul-19 18:33N 43°19' E 004°59'10 9.8
2016-Jul-19 17:33N 43°10' E 005°03'1312.8
2016-Jul-19 16:32N 42°59' E 004°54'1312.8
2016-Jul-19 15:33N 42°48' E 004°45'2512.5
2016-Jul-19 13:33N 42°27' E 004°27'1313.2
2016-Jul-19 12:32N 42°16' E 004°18'1313.5
2016-Jul-19 11:33N 42°04' E 004°08'1413.7
2016-Jul-19 10:33N 41°52' E 003°59'1413.5
2016-Jul-19 09:32N 41°41' E 003°49'1313.2
2016-Jul-19 08:33N 41°30' E 003°40'1212.5
2016-Jul-19 07:33N 41°19' E 003°31'3912.8
2016-Jul-19 04:33N 40°46' E 003°04'1312.8
2016-Jul-19 03:33N 40°35' E 002°56'1313.0
2016-Jul-19 02:33N 40°25' E 002°46'1313.1
2016-Jul-19 01:33N 40°13' E 002°37'1212.4
2016-Jul-19 00:34N 40°03' E 002°29'1110.5
2016-Jul-18 23:33N 39°54' E 002°21'1110.6
2016-Jul-18 22:33N 39°45' E 002°14'9 9.1
2016-Jul-18 21:33N 39°36' E 002°12'10 9.9
2016-Jul-18 20:33N 39°27' E 002°19'1211.5
2016-Jul-18 19:33N 39°26' E 002°33'8 8.2
2016-Jul-18 18:32N 39°33' E 002°38'0 0.0
2016-Jul-18 17:08N 39°33' E 002°38'0 0.0
2016-Jul-18 16:29N 39°33' E 002°38'0 0.0
2016-Jul-18 15:32N 39°33' E 002°38'0 0.0
2016-Jul-18 14:32N 39°33' E 002°38'0 0.0
2016-Jul-18 13:32N 39°33' E 002°38'0 0.0
2016-Jul-18 12:32N 39°33' E 002°38'0 0.0
2016-Jul-18 11:32N 39°33' E 002°38'0 0.0
2016-Jul-18 10:32N 39°33' E 002°38'0 0.0
2016-Jul-18 09:32N 39°33' E 002°38'0 0.0
2016-Jul-18 08:32N 39°33' E 002°38'0 0.0
2016-Jul-18 07:32N 39°33' E 002°38'0 0.0
2016-Jul-18 06:32N 39°33' E 002°38'0 0.0
2016-Jul-18 05:32N 39°33' E 002°38'0 0.0
2016-Jul-18 04:32N 39°33' E 002°38'0 0.0
2016-Jul-18 03:32N 39°33' E 002°38'0 0.0
2016-Jul-18 02:32N 39°33' E 002°38'0 0.0
2016-Jul-18 01:32N 39°33' E 002°38'0 0.0
2016-Jul-18 00:32N 39°33' E 002°38'0 0.0
2016-Jul-17 23:32N 39°33' E 002°38'0 0.0
2016-Jul-17 22:32N 39°33' E 002°38'0 0.0
2016-Jul-17 21:32N 39°33' E 002°38'0 0.0
2016-Jul-17 20:32N 39°33' E 002°38'  
Track history (hours):
 
Tides and Currents Weather Stations Pressure Air Temp Water Temp Dewpoint Dewpoint Depression Visibility Wind Speed Wind Dir Waves Ship Positions

Super Servant 4

Last reported at 2016-Jul-27 20:30 UTC. Time now 2016-Jul-29 12:08 UTC.
Position N 39°21' W 009°49'.

Length 139 m; beam 32 m.

Type: Cargo ship. MMSI: 306157000.

Date/timePositionNaut miles runAvg speedWind from/ knotsBaromVisibWave heightAir tempDewpointWater temp
2016-Jul-27 20:30N 39°21' W 009°49'1010.8
2016-Jul-27 19:34N 39°10' W 009°50'1110.5
2016-Jul-27 18:33N 38°60' W 009°49'1010.5
2016-Jul-27 17:33N 38°49' W 009°50'1110.5
2016-Jul-27 16:33N 38°39' W 009°50'1010.3
2016-Jul-27 15:32N 38°30' W 009°43'1010.2
2016-Jul-27 14:33N 38°23' W 009°34'10 9.7
2016-Jul-27 13:33N 38°20' W 009°22'1212.1
2016-Jul-27 12:33N 38°20' W 009°07'1010.3
2016-Jul-27 11:34N 38°28' W 008°58'4 3.9
2016-Jul-27 10:32N 38°31' W 008°54'0 0.0
2016-Jul-27 09:32N 38°31' W 008°54'0 0.0
2016-Jul-27 08:29N 38°31' W 008°54'0 0.0
2016-Jul-27 07:29N 38°31' W 008°54'0 0.0
2016-Jul-27 06:29N 38°31' W 008°54'0 0.0
2016-Jul-27 05:23N 38°31' W 008°54'0 0.0
2016-Jul-27 04:26N 38°31' W 008°54'0 0.0
2016-Jul-27 03:32N 38°31' W 008°54'0 0.0
2016-Jul-27 02:32N 38°31' W 008°54'0 0.0
2016-Jul-27 01:32N 38°31' W 008°54'0 0.0
2016-Jul-27 00:32N 38°31' W 008°54'0 0.0
2016-Jul-26 23:32N 38°31' W 008°54'0 0.0
2016-Jul-26 22:32N 38°31' W 008°54'0 0.0
2016-Jul-26 21:32N 38°31' W 008°54'0 0.0
2016-Jul-26 20:32N 38°31' W 008°54'0 0.0
2016-Jul-26 19:29N 38°31' W 008°54'0 0.0
2016-Jul-26 18:32N 38°31' W 008°54'0 0.0
2016-Jul-26 17:32N 38°31' W 008°54'0 0.0
2016-Jul-26 16:32N 38°31' W 008°54'0 0.0
2016-Jul-26 15:32N 38°31' W 008°54'0 0.0
2016-Jul-26 14:32N 38°31' W 008°54'0 0.0
2016-Jul-26 13:32N 38°31' W 008°54'0 0.0
2016-Jul-26 12:32N 38°31' W 008°54'0 0.0
2016-Jul-26 11:26N 38°31' W 008°54'0 0.0
2016-Jul-26 10:32N 38°31' W 008°54'0 0.0
2016-Jul-26 09:32N 38°31' W 008°54'0 0.0
2016-Jul-26 08:32N 38°31' W 008°54'0 0.0
2016-Jul-26 07:32N 38°31' W 008°54'0 0.0
2016-Jul-26 06:32N 38°31' W 008°54'0 0.0
2016-Jul-26 05:32N 38°31' W 008°54'0 0.0
2016-Jul-26 04:32N 38°31' W 008°54'0 0.0
2016-Jul-26 03:32N 38°31' W 008°54'0 0.0
2016-Jul-26 02:29N 38°31' W 008°54'0 0.0
2016-Jul-26 01:32N 38°31' W 008°54'0 0.0
2016-Jul-26 00:32N 38°31' W 008°54'0 0.0
2016-Jul-25 23:32N 38°31' W 008°54'0 0.0
2016-Jul-25 22:29N 38°31' W 008°54'0 0.0
2016-Jul-25 21:32N 38°31' W 008°54'0 0.0
2016-Jul-25 20:32N 38°31' W 008°54'0 0.1
2016-Jul-25 19:29N 38°31' W 008°54'0 0.0
2016-Jul-25 18:29N 38°31' W 008°54'0 0.0
2016-Jul-25 17:29N 38°31' W 008°54'0 0.0
2016-Jul-25 16:29N 38°31' W 008°54'0 0.2
2016-Jul-25 15:32N 38°31' W 008°54'0 0.0
2016-Jul-25 14:29N 38°31' W 008°54'0 0.0
2016-Jul-25 13:32N 38°31' W 008°54'0 0.0
2016-Jul-25 12:32N 38°31' W 008°54'0 0.0
2016-Jul-25 11:32N 38°31' W 008°54'0 0.0
2016-Jul-25 10:29N 38°31' W 008°54'0 0.0
2016-Jul-25 09:32N 38°31' W 008°54'0 0.0
2016-Jul-25 08:32N 38°31' W 008°54'0 0.0
2016-Jul-25 07:32N 38°31' W 008°54'0 0.0
2016-Jul-25 06:32N 38°31' W 008°54'0 0.0
2016-Jul-25 05:29N 38°31' W 008°54'0 0.0
2016-Jul-25 04:32N 38°31' W 008°54'0 0.0
2016-Jul-25 03:32N 38°31' W 008°54'0 0.0
2016-Jul-25 02:29N 38°31' W 008°54'0 0.3
2016-Jul-25 01:33N 38°31' W 008°54'8 7.7
2016-Jul-25 00:33N 38°24' W 008°59'1 1.4
2016-Jul-24 23:33N 38°23' W 009°00'3 3.0
2016-Jul-24 22:33N 38°20' W 009°01'1212.3
2016-Jul-24 21:34N 38°08' W 009°04'1212.3
2016-Jul-24 20:33N 37°56' W 009°08'1211.9
2016-Jul-24 19:33N 37°44' W 009°11'1212.0
2016-Jul-24 18:33N 37°32' W 009°14'1211.8
2016-Jul-24 17:33N 37°21' W 009°17'1212.0
2016-Jul-24 16:32N 37°09' W 009°20'1311.3
2016-Jul-24 15:23N 36°56' W 009°20'1011.5
2016-Jul-24 14:33N 36°48' W 009°13'1211.3
2016-Jul-24 13:30N 36°42' W 009°00'1112.0
2016-Jul-24 12:33N 36°39' W 008°47'1212.4
2016-Jul-24 11:33N 36°35' W 008°32'1212.3
2016-Jul-24 10:33N 36°31' W 008°17'1312.4
2016-Jul-24 09:30N 36°27' W 008°02'2512.7
2016-Jul-24 07:31N 36°19' W 007°33'9613.6
2016-Jul-24 00:26N 35°57' W 005°37'1011.3
2016-Jul-23 23:33N 36°00' W 005°25'1111.0
2016-Jul-23 22:33N 36°02' W 005°12'9712.0
2016-Jul-23 14:25N 36°19' W 003°13'2612.2
2016-Jul-23 12:16N 36°23' W 002°40'1012.5
2016-Jul-23 11:29N 36°24' W 002°28'1212.4
2016-Jul-23 10:31N 36°26' W 002°13'1212.4
2016-Jul-23 09:31N 36°32' W 002°00'4212.9
2016-Jul-23 06:15N 36°56' W 001°17'2313.2
2016-Jul-23 04:32N 37°08' W 000°53'1412.9
2016-Jul-23 03:27N 37°16' W 000°39'1412.8
2016-Jul-23 02:23N 37°25' W 000°26'1113.3
2016-Jul-23 01:33N 37°34' W 000°18'1413.6
2016-Jul-23 00:30N 37°46' W 000°08'1313.2
2016-Jul-22 23:29N 37°57' E 000°03'1212.9
2016-Jul-22 22:32N 38°07' E 000°11'3012.4
2016-Jul-22 20:07N 38°31' E 000°34'912.6
2016-Jul-22 19:24N 38°38' E 000°40'1212.8
2016-Jul-22 18:29N 38°48' E 000°49'1412.8
2016-Jul-22 17:21N 38°60' E 001°00'1612.8
2016-Jul-22 16:08N 39°12' E 001°12'1212.6
2016-Jul-22 15:13N 39°23' E 001°18'5 7.0
2016-Jul-22 14:30N 39°25' E 001°24'2512.7
2016-Jul-22 12:33N 39°45' E 001°43'1312.7
2016-Jul-22 11:33N 39°55' E 001°53'1312.8
2016-Jul-22 10:33N 40°06' E 002°02'1312.9
2016-Jul-22 09:33N 40°16' E 002°12'1312.9
2016-Jul-22 08:33N 40°27' E 002°22'9 9.3
2016-Jul-22 07:33N 40°34' E 002°30'2613.0
2016-Jul-22 05:33N 40°55' E 002°50'1312.9
2016-Jul-22 04:33N 41°06' E 002°60'1313.3
2016-Jul-22 03:33N 41°16' E 003°10'1413.6
2016-Jul-22 02:33N 41°28' E 003°21'1313.2
2016-Jul-22 01:33N 41°38' E 003°32'1312.8
2016-Jul-22 00:32N 41°49' E 003°41'1612.9
2016-Jul-21 23:17N 42°02' E 003°53'912.7
2016-Jul-21 22:33N 42°10' E 003°60'1212.2
2016-Jul-21 21:33N 42°19' E 004°11'1312.6
2016-Jul-21 20:33N 42°29' E 004°21'1312.8
2016-Jul-21 19:33N 42°39' E 004°31'1512.8
2016-Jul-21 18:23N 42°52' E 004°43'1112.6
2016-Jul-21 17:32N 43°00' E 004°52'1211.9
2016-Jul-21 16:33N 43°10' E 005°01'1111.2
2016-Jul-21 15:33N 43°21' E 004°58'6 5.8
2016-Jul-21 14:32N 43°25' E 004°52'0 0.0
2016-Jul-21 13:32N 43°25' E 004°52'0 0.0
2016-Jul-21 12:32N 43°25' E 004°52'0 0.0
2016-Jul-21 11:32N 43°25' E 004°52'0 0.0
2016-Jul-21 10:32N 43°25' E 004°52'0 0.0
2016-Jul-21 09:32N 43°25' E 004°52'0 0.0
2016-Jul-21 03:20N 43°25' E 004°52'0 0.0
2016-Jul-19 19:24N 43°25' E 004°53'7 8.4
2016-Jul-19 18:33N 43°19' E 004°59'10 9.8
2016-Jul-19 17:33N 43°10' E 005°03'1312.8
2016-Jul-19 16:32N 42°59' E 004°54'1312.8
2016-Jul-19 15:33N 42°48' E 004°45'2512.5
2016-Jul-19 13:33N 42°27' E 004°27'1313.2
2016-Jul-19 12:32N 42°16' E 004°18'1313.5
2016-Jul-19 11:33N 42°04' E 004°08'1413.7
2016-Jul-19 10:33N 41°52' E 003°59'1413.5
2016-Jul-19 09:32N 41°41' E 003°49'1313.2
2016-Jul-19 08:33N 41°30' E 003°40'1212.5
2016-Jul-19 07:33N 41°19' E 003°31'3912.8
2016-Jul-19 04:33N 40°46' E 003°04'1312.8
2016-Jul-19 03:33N 40°35' E 002°56'1313.0
2016-Jul-19 02:33N 40°25' E 002°46'1313.1
2016-Jul-19 01:33N 40°13' E 002°37'1212.4
2016-Jul-19 00:34N 40°03' E 002°29'1110.5
2016-Jul-18 23:33N 39°54' E 002°21'1110.6
2016-Jul-18 22:33N 39°45' E 002°14'9 9.1
2016-Jul-18 21:33N 39°36' E 002°12'10 9.9
2016-Jul-18 20:33N 39°27' E 002°19'1211.5
2016-Jul-18 19:33N 39°26' E 002°33'8 8.2
2016-Jul-18 18:32N 39°33' E 002°38'0 0.0
2016-Jul-18 17:08N 39°33' E 002°38'0 0.0
2016-Jul-18 16:29N 39°33' E 002°38'0 0.0
2016-Jul-18 15:32N 39°33' E 002°38'0 0.0
2016-Jul-18 14:32N 39°33' E 002°38'0 0.0
2016-Jul-18 13:32N 39°33' E 002°38'0 0.0
2016-Jul-18 12:32N 39°33' E 002°38'0 0.0
2016-Jul-18 11:32N 39°33' E 002°38'0 0.0
2016-Jul-18 10:32N 39°33' E 002°38'0 0.0
2016-Jul-18 09:32N 39°33' E 002°38'0 0.0
2016-Jul-18 08:32N 39°33' E 002°38'0 0.0
2016-Jul-18 07:32N 39°33' E 002°38'0 0.0
2016-Jul-18 06:32N 39°33' E 002°38'0 0.0
2016-Jul-18 05:32N 39°33' E 002°38'0 0.0
2016-Jul-18 04:32N 39°33' E 002°38'0 0.0
2016-Jul-18 03:32N 39°33' E 002°38'0 0.0
2016-Jul-18 02:32N 39°33' E 002°38'0 0.0
2016-Jul-18 01:32N 39°33' E 002°38'0 0.0
2016-Jul-18 00:32N 39°33' E 002°38'0 0.0
2016-Jul-17 23:32N 39°33' E 002°38'0 0.0
2016-Jul-17 22:32N 39°33' E 002°38'0 0.0
2016-Jul-17 21:32N 39°33' E 002°38'0 0.0
2016-Jul-17 20:32N 39°33' E 002°38'  

Dump ship's entire track history